sensor_id;sensor_type;location;lat;lon;timestamp;pressure;altitude;pressure_sealevel;temperature;humidity
70411;BME280;57832;46.038;11.398;2023-02-11T00:01:15;98847.31;;;-5.40;100.00
70411;BME280;57832;46.038;11.398;2023-02-11T00:03:43;98853.16;;;-5.38;100.00
70411;BME280;57832;46.038;11.398;2023-02-11T00:06:09;98857.34;;;-5.37;100.00
70411;BME280;57832;46.038;11.398;2023-02-11T00:08:36;98861.91;;;-5.27;100.00
70411;BME280;57832;46.038;11.398;2023-02-11T00:11:02;98849.81;;;-5.25;100.00
70411;BME280;57832;46.038;11.398;2023-02-11T00:13:28;98848.47;;;-5.31;100.00
70411;BME280;57832;46.038;11.398;2023-02-11T00:15:54;98850.91;;;-5.15;100.00
70411;BME280;57832;46.038;11.398;2023-02-11T00:18:20;98850.47;;;-5.22;100.00
70411;BME280;57832;46.038;11.398;2023-02-11T00:20:45;98851.44;;;-5.10;100.00
70411;BME280;57832;46.038;11.398;2023-02-11T00:23:11;98851.06;;;-5.04;100.00
70411;BME280;57832;46.038;11.398;2023-02-11T00:25:39;98847.97;;;-5.09;100.00
70411;BME280;57832;46.038;11.398;2023-02-11T00:28:05;98841.94;;;-5.08;100.00
70411;BME280;57832;46.038;11.398;2023-02-11T00:30:30;98840.06;;;-4.91;100.00
70411;BME280;57832;46.038;11.398;2023-02-11T00:32:56;98845.22;;;-5.06;100.00
70411;BME280;57832;46.038;11.398;2023-02-11T00:35:22;98844.31;;;-5.05;100.00
70411;BME280;57832;46.038;11.398;2023-02-11T00:37:47;98834.78;;;-5.03;100.00
70411;BME280;57832;46.038;11.398;2023-02-11T00:40:13;98841.16;;;-5.23;100.00
70411;BME280;57832;46.038;11.398;2023-02-11T00:42:41;98842.78;;;-5.22;100.00
70411;BME280;57832;46.038;11.398;2023-02-11T00:45:07;98838.88;;;-5.27;100.00
70411;BME280;57832;46.038;11.398;2023-02-11T00:47:34;98848.44;;;-5.44;100.00
70411;BME280;57832;46.038;11.398;2023-02-11T00:49:59;98840.03;;;-5.60;100.00
70411;BME280;57832;46.038;11.398;2023-02-11T00:52:25;98847.50;;;-5.57;100.00
70411;BME280;57832;46.038;11.398;2023-02-11T00:54:50;98845.94;;;-5.45;100.00
70411;BME280;57832;46.038;11.398;2023-02-11T00:57:16;98849.94;;;-5.27;100.00
70411;BME280;57832;46.038;11.398;2023-02-11T00:59:41;98843.56;;;-5.34;100.00
70411;BME280;57832;46.038;11.398;2023-02-11T01:02:07;98853.44;;;-5.57;100.00
70411;BME280;57832;46.038;11.398;2023-02-11T01:07:54;98865.28;;;-5.27;100.00
70411;BME280;57832;46.038;11.398;2023-02-11T01:10:19;98854.03;;;-5.24;100.00
70411;BME280;57832;46.038;11.398;2023-02-11T01:12:45;98850.88;;;-5.28;100.00
70411;BME280;57832;46.038;11.398;2023-02-11T01:15:14;98847.78;;;-5.47;100.00
70411;BME280;57832;46.038;11.398;2023-02-11T01:17:40;98840.91;;;-5.47;100.00
70411;BME280;57832;46.038;11.398;2023-02-11T01:20:08;98845.66;;;-5.41;100.00
70411;BME280;57832;46.038;11.398;2023-02-11T01:22:33;98841.81;;;-5.33;100.00
70411;BME280;57832;46.038;11.398;2023-02-11T01:25:04;98844.13;;;-5.43;100.00
70411;BME280;57832;46.038;11.398;2023-02-11T01:27:30;98847.94;;;-5.36;100.00
70411;BME280;57832;46.038;11.398;2023-02-11T01:29:56;98837.75;;;-5.65;100.00
70411;BME280;57832;46.038;11.398;2023-02-11T01:32:21;98840.00;;;-5.46;100.00
70411;BME280;57832;46.038;11.398;2023-02-11T01:34:47;98834.53;;;-5.40;100.00
70411;BME280;57832;46.038;11.398;2023-02-11T01:37:12;98831.78;;;-5.51;100.00
70411;BME280;57832;46.038;11.398;2023-02-11T01:39:38;98827.06;;;-5.86;100.00
70411;BME280;57832;46.038;11.398;2023-02-11T01:42:04;98826.91;;;-6.26;100.00
70411;BME280;57832;46.038;11.398;2023-02-11T01:44:38;98824.78;;;-5.91;100.00
70411;BME280;57832;46.038;11.398;2023-02-11T01:47:04;98823.88;;;-5.61;100.00
70411;BME280;57832;46.038;11.398;2023-02-11T01:49:33;98821.41;;;-5.62;100.00
70411;BME280;57832;46.038;11.398;2023-02-11T01:52:03;98816.19;;;-5.61;100.00
70411;BME280;57832;46.038;11.398;2023-02-11T01:54:37;98817.34;;;-5.52;100.00
70411;BME280;57832;46.038;11.398;2023-02-11T01:57:26;98809.88;;;-5.55;100.00
70411;BME280;57832;46.038;11.398;2023-02-11T02:05:29;98792.75;;;-5.40;100.00
70411;BME280;57832;46.038;11.398;2023-02-11T02:08:02;98789.53;;;-5.57;100.00
70411;BME280;57832;46.038;11.398;2023-02-11T02:10:30;98792.09;;;-5.85;100.00
70411;BME280;57832;46.038;11.398;2023-02-11T02:12:56;98792.75;;;-5.82;100.00
70411;BME280;57832;46.038;11.398;2023-02-11T02:15:30;98783.50;;;-5.56;100.00
70411;BME280;57832;46.038;11.398;2023-02-11T02:18:05;98777.06;;;-5.76;100.00
70411;BME280;57832;46.038;11.398;2023-02-11T02:38:36;98774.28;;;-5.58;100.00
70411;BME280;57832;46.038;11.398;2023-02-11T02:40:47;98770.78;;;-5.57;100.00
70411;BME280;57832;46.038;11.398;2023-02-11T02:43:14;98770.88;;;-5.59;100.00
70411;BME280;57832;46.038;11.398;2023-02-11T02:45:40;98766.81;;;-5.76;100.00
70411;BME280;57832;46.038;11.398;2023-02-11T02:48:06;98757.56;;;-5.64;100.00
70411;BME280;57832;46.038;11.398;2023-02-11T02:50:35;98759.97;;;-5.75;100.00
70411;BME280;57832;46.038;11.398;2023-02-11T02:55:53;98758.63;;;-5.95;100.00
70411;BME280;57832;46.038;11.398;2023-02-11T03:06:26;98763.84;;;-5.97;100.00
70411;BME280;57832;46.038;11.398;2023-02-11T03:09:15;98756.34;;;-6.00;100.00
70411;BME280;57832;46.038;11.398;2023-02-11T03:11:44;98766.28;;;-5.95;100.00
70411;BME280;57832;46.038;11.398;2023-02-11T03:14:12;98753.47;;;-6.37;100.00
70411;BME280;57832;46.038;11.398;2023-02-11T03:16:39;98759.47;;;-6.38;100.00
70411;BME280;57832;46.038;11.398;2023-02-11T03:19:12;98754.63;;;-6.28;100.00
70411;BME280;57832;46.038;11.398;2023-02-11T03:21:40;98758.66;;;-6.24;100.00
70411;BME280;57832;46.038;11.398;2023-02-11T03:24:13;98757.00;;;-6.11;100.00
70411;BME280;57832;46.038;11.398;2023-02-11T03:26:45;98755.91;;;-6.07;100.00
70411;BME280;57832;46.038;11.398;2023-02-11T03:32:11;98750.09;;;-6.23;100.00
70411;BME280;57832;46.038;11.398;2023-02-11T03:34:47;98749.34;;;-6.11;100.00
70411;BME280;57832;46.038;11.398;2023-02-11T03:39:50;98741.97;;;-6.30;100.00
70411;BME280;57832;46.038;11.398;2023-02-11T03:42:18;98737.13;;;-6.20;100.00
70411;BME280;57832;46.038;11.398;2023-02-11T03:44:54;98736.91;;;-6.60;100.00
70411;BME280;57832;46.038;11.398;2023-02-11T03:47:25;98732.19;;;-6.52;100.00
70411;BME280;57832;46.038;11.398;2023-02-11T03:49:53;98731.03;;;-6.46;100.00
70411;BME280;57832;46.038;11.398;2023-02-11T03:52:21;98725.06;;;-6.47;100.00
70411;BME280;57832;46.038;11.398;2023-02-11T03:54:53;98723.72;;;-6.52;100.00
70411;BME280;57832;46.038;11.398;2023-02-11T03:57:20;98721.41;;;-6.57;100.00
70411;BME280;57832;46.038;11.398;2023-02-11T03:59:53;98715.94;;;-6.65;100.00
70411;BME280;57832;46.038;11.398;2023-02-11T04:02:22;98719.22;;;-6.63;100.00
70411;BME280;57832;46.038;11.398;2023-02-11T04:04:49;98715.25;;;-6.53;100.00
70411;BME280;57832;46.038;11.398;2023-02-11T04:07:15;98715.41;;;-6.56;100.00
70411;BME280;57832;46.038;11.398;2023-02-11T04:09:40;98721.03;;;-6.65;100.00
70411;BME280;57832;46.038;11.398;2023-02-11T04:12:06;98718.16;;;-6.45;100.00
70411;BME280;57832;46.038;11.398;2023-02-11T04:14:32;98713.66;;;-6.41;100.00
70411;BME280;57832;46.038;11.398;2023-02-11T04:16:57;98711.97;;;-6.41;100.00
70411;BME280;57832;46.038;11.398;2023-02-11T04:19:23;98713.22;;;-6.48;100.00
70411;BME280;57832;46.038;11.398;2023-02-11T04:21:49;98715.50;;;-6.58;100.00
70411;BME280;57832;46.038;11.398;2023-02-11T04:24:14;98713.59;;;-6.40;100.00
70411;BME280;57832;46.038;11.398;2023-02-11T04:26:40;98727.72;;;-6.34;100.00
70411;BME280;57832;46.038;11.398;2023-02-11T04:29:05;98717.69;;;-6.51;100.00
70411;BME280;57832;46.038;11.398;2023-02-11T04:31:31;98715.31;;;-6.55;100.00
70411;BME280;57832;46.038;11.398;2023-02-11T04:33:56;98717.31;;;-6.74;100.00
70411;BME280;57832;46.038;11.398;2023-02-11T04:36:22;98719.41;;;-6.52;100.00
70411;BME280;57832;46.038;11.398;2023-02-11T04:38:47;98718.41;;;-6.49;100.00
70411;BME280;57832;46.038;11.398;2023-02-11T04:41:13;98710.19;;;-6.55;100.00
70411;BME280;57832;46.038;11.398;2023-02-11T04:43:38;98710.69;;;-6.62;100.00
70411;BME280;57832;46.038;11.398;2023-02-11T04:46:04;98706.75;;;-6.53;100.00
70411;BME280;57832;46.038;11.398;2023-02-11T04:48:30;98704.47;;;-6.58;100.00
70411;BME280;57832;46.038;11.398;2023-02-11T04:50:55;98709.84;;;-6.48;100.00
70411;BME280;57832;46.038;11.398;2023-02-11T04:53:21;98715.06;;;-6.21;100.00
70411;BME280;57832;46.038;11.398;2023-02-11T04:55:49;98709.22;;;-6.38;100.00
70411;BME280;57832;46.038;11.398;2023-02-11T04:58:16;98699.81;;;-6.23;100.00
70411;BME280;57832;46.038;11.398;2023-02-11T05:00:41;98708.84;;;-6.46;100.00
70411;BME280;57832;46.038;11.398;2023-02-11T05:03:07;98707.41;;;-6.35;100.00
70411;BME280;57832;46.038;11.398;2023-02-11T05:05:32;98708.47;;;-6.54;100.00
70411;BME280;57832;46.038;11.398;2023-02-11T05:07:58;98705.84;;;-6.38;100.00
70411;BME280;57832;46.038;11.398;2023-02-11T05:10:23;98699.09;;;-6.25;100.00
70411;BME280;57832;46.038;11.398;2023-02-11T05:12:49;98697.63;;;-6.14;100.00
70411;BME280;57832;46.038;11.398;2023-02-11T05:15:15;98700.06;;;-5.98;100.00
70411;BME280;57832;46.038;11.398;2023-02-11T05:17:40;98699.75;;;-6.21;100.00
70411;BME280;57832;46.038;11.398;2023-02-11T05:20:06;98701.91;;;-6.29;100.00
70411;BME280;57832;46.038;11.398;2023-02-11T05:22:32;98698.78;;;-6.06;100.00
70411;BME280;57832;46.038;11.398;2023-02-11T05:24:57;98700.28;;;-6.59;100.00
70411;BME280;57832;46.038;11.398;2023-02-11T05:27:23;98698.19;;;-6.24;100.00
70411;BME280;57832;46.038;11.398;2023-02-11T05:29:48;98690.97;;;-6.31;100.00
70411;BME280;57832;46.038;11.398;2023-02-11T05:32:14;98701.91;;;-6.29;100.00
70411;BME280;57832;46.038;11.398;2023-02-11T05:34:39;98700.53;;;-6.20;100.00
70411;BME280;57832;46.038;11.398;2023-02-11T05:37:05;98690.53;;;-6.24;100.00
70411;BME280;57832;46.038;11.398;2023-02-11T05:39:30;98697.25;;;-6.23;100.00
70411;BME280;57832;46.038;11.398;2023-02-11T05:41:56;98699.53;;;-6.47;100.00
70411;BME280;57832;46.038;11.398;2023-02-11T05:44:21;98698.44;;;-6.57;100.00
70411;BME280;57832;46.038;11.398;2023-02-11T05:46:47;98696.00;;;-6.30;100.00
70411;BME280;57832;46.038;11.398;2023-02-11T05:49:13;98691.53;;;-6.55;100.00
70411;BME280;57832;46.038;11.398;2023-02-11T05:51:40;98689.31;;;-6.61;100.00
70411;BME280;57832;46.038;11.398;2023-02-11T05:54:05;98688.50;;;-6.47;100.00
70411;BME280;57832;46.038;11.398;2023-02-11T05:56:31;98686.69;;;-6.31;100.00
70411;BME280;57832;46.038;11.398;2023-02-11T05:58:58;98696.19;;;-6.33;100.00
70411;BME280;57832;46.038;11.398;2023-02-11T06:01:24;98684.03;;;-6.44;100.00
70411;BME280;57832;46.038;11.398;2023-02-11T06:03:49;98690.69;;;-6.41;100.00
70411;BME280;57832;46.038;11.398;2023-02-11T06:06:15;98690.63;;;-6.40;100.00
70411;BME280;57832;46.038;11.398;2023-02-11T06:08:42;98687.13;;;-6.39;100.00
70411;BME280;57832;46.038;11.398;2023-02-11T06:11:08;98695.34;;;-6.19;100.00
70411;BME280;57832;46.038;11.398;2023-02-11T06:13:34;98688.03;;;-6.11;100.00
70411;BME280;57832;46.038;11.398;2023-02-11T06:16:01;98686.59;;;-6.29;100.00
70411;BME280;57832;46.038;11.398;2023-02-11T06:18:28;98688.88;;;-6.39;100.00
70411;BME280;57832;46.038;11.398;2023-02-11T06:20:54;98698.44;;;-6.43;100.00
70411;BME280;57832;46.038;11.398;2023-02-11T06:23:20;98699.00;;;-6.38;100.00
70411;BME280;57832;46.038;11.398;2023-02-11T06:25:46;98699.09;;;-6.25;100.00
70411;BME280;57832;46.038;11.398;2023-02-11T06:28:11;98694.78;;;-6.24;100.00
70411;BME280;57832;46.038;11.398;2023-02-11T06:30:37;98694.44;;;-6.18;100.00
70411;BME280;57832;46.038;11.398;2023-02-11T06:33:03;98693.31;;;-6.57;100.00
70411;BME280;57832;46.038;11.398;2023-02-11T06:35:28;98693.97;;;-6.25;100.00
70411;BME280;57832;46.038;11.398;2023-02-11T06:37:54;98691.34;;;-6.23;100.00
70411;BME280;57832;46.038;11.398;2023-02-11T06:40:20;98704.84;;;-6.21;100.00
70411;BME280;57832;46.038;11.398;2023-02-11T06:42:46;98705.19;;;-6.13;100.00
70411;BME280;57832;46.038;11.398;2023-02-11T06:45:12;98697.91;;;-6.33;100.00
70411;BME280;57832;46.038;11.398;2023-02-11T06:47:38;98695.44;;;-6.20;100.00
70411;BME280;57832;46.038;11.398;2023-02-11T06:50:05;98705.91;;;-6.11;100.00
70411;BME280;57832;46.038;11.398;2023-02-11T06:52:32;98694.13;;;-6.13;100.00
70411;BME280;57832;46.038;11.398;2023-02-11T06:54:57;98697.97;;;-6.06;100.00
70411;BME280;57832;46.038;11.398;2023-02-11T06:57:23;98696.88;;;-6.02;100.00
70411;BME280;57832;46.038;11.398;2023-02-11T06:59:48;98695.63;;;-5.82;100.00
70411;BME280;57832;46.038;11.398;2023-02-11T07:02:14;98699.44;;;-5.75;100.00
70411;BME280;57832;46.038;11.398;2023-02-11T07:04:39;98697.41;;;-5.69;100.00
70411;BME280;57832;46.038;11.398;2023-02-11T07:07:05;98701.09;;;-5.88;100.00
70411;BME280;57832;46.038;11.398;2023-02-11T07:09:31;98707.09;;;-5.75;100.00
70411;BME280;57832;46.038;11.398;2023-02-11T07:11:56;98707.25;;;-5.63;100.00
70411;BME280;57832;46.038;11.398;2023-02-11T07:14:22;98709.91;;;-5.65;100.00
70411;BME280;57832;46.038;11.398;2023-02-11T07:16:47;98705.38;;;-5.47;100.00
70411;BME280;57832;46.038;11.398;2023-02-11T07:19:13;98696.00;;;-5.33;100.00
70411;BME280;57832;46.038;11.398;2023-02-11T07:21:38;98700.53;;;-5.24;100.00
70411;BME280;57832;46.038;11.398;2023-02-11T07:24:08;98705.38;;;-5.07;100.00
70411;BME280;57832;46.038;11.398;2023-02-11T07:26:34;98703.75;;;-5.08;100.00
70411;BME280;57832;46.038;11.398;2023-02-11T07:29:00;98702.56;;;-5.29;100.00
70411;BME280;57832;46.038;11.398;2023-02-11T07:31:27;98703.56;;;-5.32;100.00
70411;BME280;57832;46.038;11.398;2023-02-11T07:33:54;98721.25;;;-5.14;100.00
70411;BME280;57832;46.038;11.398;2023-02-11T07:36:21;98715.59;;;-5.19;100.00
70411;BME280;57832;46.038;11.398;2023-02-11T07:38:47;98715.78;;;-5.23;100.00
70411;BME280;57832;46.038;11.398;2023-02-11T07:41:15;98713.66;;;-5.16;100.00
70411;BME280;57832;46.038;11.398;2023-02-11T07:43:41;98715.50;;;-5.18;100.00
70411;BME280;57832;46.038;11.398;2023-02-11T07:46:20;98714.63;;;-4.91;100.00
70411;BME280;57832;46.038;11.398;2023-02-11T07:48:46;98718.25;;;-5.21;100.00
70411;BME280;57832;46.038;11.398;2023-02-11T07:51:15;98716.97;;;-5.01;100.00
70411;BME280;57832;46.038;11.398;2023-02-11T07:53:41;98709.78;;;-4.96;100.00
70411;BME280;57832;46.038;11.398;2023-02-11T07:56:08;98706.97;;;-4.78;100.00
70411;BME280;57832;46.038;11.398;2023-02-11T07:58:34;98712.38;;;-4.83;100.00
70411;BME280;57832;46.038;11.398;2023-02-11T08:01:04;98720.91;;;-4.70;100.00
70411;BME280;57832;46.038;11.398;2023-02-11T08:03:31;98716.41;;;-4.53;100.00
70411;BME280;57832;46.038;11.398;2023-02-11T08:05:57;98714.94;;;-4.57;100.00
70411;BME280;57832;46.038;11.398;2023-02-11T08:08:25;98706.34;;;-4.43;100.00
70411;BME280;57832;46.038;11.398;2023-02-11T08:10:51;98713.09;;;-4.68;100.00
70411;BME280;57832;46.038;11.398;2023-02-11T08:13:16;98716.19;;;-4.50;100.00
70411;BME280;57832;46.038;11.398;2023-02-11T08:15:42;98712.00;;;-4.51;100.00
70411;BME280;57832;46.038;11.398;2023-02-11T08:18:07;98707.38;;;-4.33;100.00
70411;BME280;57832;46.038;11.398;2023-02-11T08:20:33;98708.72;;;-4.40;100.00
70411;BME280;57832;46.038;11.398;2023-02-11T08:22:58;98713.94;;;-4.42;100.00
70411;BME280;57832;46.038;11.398;2023-02-11T08:25:24;98710.53;;;-4.29;100.00
70411;BME280;57832;46.038;11.398;2023-02-11T08:27:50;98703.88;;;-4.71;100.00
70411;BME280;57832;46.038;11.398;2023-02-11T08:30:15;98709.84;;;-4.44;100.00
70411;BME280;57832;46.038;11.398;2023-02-11T08:32:41;98709.53;;;-4.40;100.00
70411;BME280;57832;46.038;11.398;2023-02-11T08:35:06;98708.38;;;-4.10;100.00
70411;BME280;57832;46.038;11.398;2023-02-11T08:37:32;98703.19;;;-3.84;100.00
70411;BME280;57832;46.038;11.398;2023-02-11T08:39:58;98709.50;;;-4.14;100.00
70411;BME280;57832;46.038;11.398;2023-02-11T08:42:24;98701.09;;;-3.79;100.00
70411;BME280;57832;46.038;11.398;2023-02-11T08:44:49;98707.22;;;-3.93;100.00
70411;BME280;57832;46.038;11.398;2023-02-11T08:47:15;98709.78;;;-3.93;100.00
70411;BME280;57832;46.038;11.398;2023-02-11T08:49:40;98705.91;;;-3.98;100.00
70411;BME280;57832;46.038;11.398;2023-02-11T08:52:07;98694.78;;;-3.86;100.00
70411;BME280;57832;46.038;11.398;2023-02-11T08:54:33;98695.03;;;-3.41;100.00
70411;BME280;57832;46.038;11.398;2023-02-11T08:56:58;98698.19;;;-3.02;100.00
70411;BME280;57832;46.038;11.398;2023-02-11T08:59:26;98694.94;;;-2.92;100.00
70411;BME280;57832;46.038;11.398;2023-02-11T09:01:52;98687.88;;;-2.55;100.00
70411;BME280;57832;46.038;11.398;2023-02-11T09:04:18;98686.28;;;-2.10;100.00
70411;BME280;57832;46.038;11.398;2023-02-11T09:06:43;98689.75;;;-2.00;100.00
70411;BME280;57832;46.038;11.398;2023-02-11T09:09:11;98690.13;;;-2.05;100.00
70411;BME280;57832;46.038;11.398;2023-02-11T09:11:38;98688.19;;;-1.69;100.00
70411;BME280;57832;46.038;11.398;2023-02-11T09:14:05;98692.91;;;-1.41;100.00
70411;BME280;57832;46.038;11.398;2023-02-11T09:16:33;98690.69;;;-0.92;100.00
70411;BME280;57832;46.038;11.398;2023-02-11T09:19:00;98695.22;;;-0.85;100.00
70411;BME280;57832;46.038;11.398;2023-02-11T09:21:27;98701.88;;;-0.82;100.00
70411;BME280;57832;46.038;11.398;2023-02-11T09:23:53;98696.56;;;-0.69;100.00
70411;BME280;57832;46.038;11.398;2023-02-11T09:26:22;98691.19;;;-0.77;100.00
70411;BME280;57832;46.038;11.398;2023-02-11T09:28:48;98684.41;;;-0.99;100.00
70411;BME280;57832;46.038;11.398;2023-02-11T09:31:16;98692.97;;;-0.99;100.00
70411;BME280;57832;46.038;11.398;2023-02-11T09:33:44;98695.03;;;-0.93;100.00
70411;BME280;57832;46.038;11.398;2023-02-11T09:36:24;98703.38;;;-0.58;100.00
70411;BME280;57832;46.038;11.398;2023-02-11T09:38:50;98693.75;;;-0.56;100.00
70411;BME280;57832;46.038;11.398;2023-02-11T09:43:49;98690.25;;;-0.24;100.00
70411;BME280;57832;46.038;11.398;2023-02-11T09:46:16;98684.56;;;0.23;100.00
70411;BME280;57832;46.038;11.398;2023-02-11T09:48:45;98692.69;;;1.83;100.00
70411;BME280;57832;46.038;11.398;2023-02-11T09:51:19;98685.31;;;3.32;100.00
70411;BME280;57832;46.038;11.398;2023-02-11T09:53:50;98675.28;;;4.91;100.00
70411;BME280;57832;46.038;11.398;2023-02-11T09:56:18;98660.44;;;6.75;100.00
70411;BME280;57832;46.038;11.398;2023-02-11T09:58:44;98660.38;;;10.51;64.06
70411;BME280;57832;46.038;11.398;2023-02-11T10:04:17;98662.09;;;9.05;44.30
70411;BME280;57832;46.038;11.398;2023-02-11T10:06:53;98663.97;;;6.04;72.74
70411;BME280;57832;46.038;11.398;2023-02-11T10:09:34;98663.25;;;4.90;86.44
70411;BME280;57832;46.038;11.398;2023-02-11T10:12:23;98659.28;;;4.28;99.33
70411;BME280;57832;46.038;11.398;2023-02-11T10:15:00;98660.47;;;4.50;100.00
70411;BME280;57832;46.038;11.398;2023-02-11T10:20:38;98657.97;;;5.39;95.45
70411;BME280;57832;46.038;11.398;2023-02-11T10:23:17;98656.16;;;6.59;90.80
70411;BME280;57832;46.038;11.398;2023-02-11T10:25:48;98646.81;;;6.88;65.11
70411;BME280;57832;46.038;11.398;2023-02-11T10:28:20;98648.53;;;7.33;62.43
70411;BME280;57832;46.038;11.398;2023-02-11T10:30:59;98645.28;;;5.92;56.02
70411;BME280;57832;46.038;11.398;2023-02-11T10:34:02;98641.53;;;6.96;56.06
70411;BME280;57832;46.038;11.398;2023-02-11T10:36:32;98625.38;;;6.77;60.28
70411;BME280;57832;46.038;11.398;2023-02-11T10:39:16;98621.50;;;5.95;57.72
70411;BME280;57832;46.038;11.398;2023-02-11T10:41:48;98613.81;;;5.62;73.10
70411;BME280;57832;46.038;11.398;2023-02-11T10:44:37;98612.03;;;5.94;69.20
70411;BME280;57832;46.038;11.398;2023-02-11T10:47:19;98605.28;;;6.40;69.94
70411;BME280;57832;46.038;11.398;2023-02-11T10:49:45;98593.94;;;6.32;59.50
70411;BME280;57832;46.038;11.398;2023-02-11T10:52:19;98600.41;;;5.34;56.53
70411;BME280;57832;46.038;11.398;2023-02-11T10:55:01;98592.44;;;6.15;62.57
70411;BME280;57832;46.038;11.398;2023-02-11T10:57:30;98586.22;;;7.15;56.84
70411;BME280;57832;46.038;11.398;2023-02-11T11:00:02;98586.22;;;7.15;50.48
70411;BME280;57832;46.038;11.398;2023-02-11T11:02:31;98578.50;;;7.89;47.11
70411;BME280;57832;46.038;11.398;2023-02-11T11:05:14;98569.63;;;8.26;44.48
70411;BME280;57832;46.038;11.398;2023-02-11T11:07:51;98564.56;;;8.03;42.67
70411;BME280;57832;46.038;11.398;2023-02-11T11:10:33;98567.84;;;7.53;43.08
70411;BME280;57832;46.038;11.398;2023-02-11T11:13:00;98565.41;;;6.92;45.65
70411;BME280;57832;46.038;11.398;2023-02-11T11:15:28;98560.72;;;6.73;46.07
70411;BME280;57832;46.038;11.398;2023-02-11T11:18:19;98554.56;;;6.50;42.39
70411;BME280;57832;46.038;11.398;2023-02-11T11:23:22;98543.41;;;6.57;42.98
70411;BME280;57832;46.038;11.398;2023-02-11T11:26:14;98540.69;;;6.88;42.88
70411;BME280;57832;46.038;11.398;2023-02-11T11:28:59;98525.44;;;5.69;43.81
70411;BME280;57832;46.038;11.398;2023-02-11T11:31:32;98523.50;;;6.94;46.39
70411;BME280;57832;46.038;11.398;2023-02-11T11:34:04;98520.94;;;6.56;45.42
70411;BME280;57832;46.038;11.398;2023-02-11T11:36:39;98516.00;;;5.99;45.00
70411;BME280;57832;46.038;11.398;2023-02-11T11:39:25;98511.34;;;5.86;49.79
70411;BME280;57832;46.038;11.398;2023-02-11T11:41:55;98516.06;;;6.52;51.17
70411;BME280;57832;46.038;11.398;2023-02-11T11:44:27;98509.69;;;6.40;52.79
70411;BME280;57832;46.038;11.398;2023-02-11T11:52:45;98505.25;;;6.79;55.13
70411;BME280;57832;46.038;11.398;2023-02-11T11:55:27;98503.19;;;6.89;56.15
70411;BME280;57832;46.038;11.398;2023-02-11T11:57:55;98502.84;;;6.54;51.82
70411;BME280;57832;46.038;11.398;2023-02-11T12:00:27;98497.25;;;6.42;50.82
70411;BME280;57832;46.038;11.398;2023-02-11T12:13:39;98466.66;;;13.59;31.53
70411;BME280;57832;46.038;11.398;2023-02-11T12:24:41;98454.09;;;10.70;34.02
70411;BME280;57832;46.038;11.398;2023-02-11T12:27:21;98444.16;;;10.92;32.87
70411;BME280;57832;46.038;11.398;2023-02-11T12:30:15;98442.66;;;11.55;33.80
70411;BME280;57832;46.038;11.398;2023-02-11T12:35:31;98434.22;;;11.08;31.86
70411;BME280;57832;46.038;11.398;2023-02-11T12:43:38;98420.69;;;14.33;26.26
70411;BME280;57832;46.038;11.398;2023-02-11T12:52:21;98396.88;;;12.01;28.86
70411;BME280;57832;46.038;11.398;2023-02-11T12:55:00;98400.06;;;11.46;29.21
70411;BME280;57832;46.038;11.398;2023-02-11T12:57:30;98404.72;;;12.70;28.30
70411;BME280;57832;46.038;11.398;2023-02-11T13:00:06;98397.06;;;11.75;30.30
70411;BME280;57832;46.038;11.398;2023-02-11T13:02:53;98398.44;;;12.09;30.83
70411;BME280;57832;46.038;11.398;2023-02-11T13:07:50;98390.94;;;13.90;29.18
70411;BME280;57832;46.038;11.398;2023-02-11T13:10:30;98387.91;;;16.19;26.25
70411;BME280;57832;46.038;11.398;2023-02-11T13:12:59;98383.50;;;12.03;28.61
70411;BME280;57832;46.038;11.398;2023-02-11T13:15:57;98370.84;;;11.36;31.42
70411;BME280;57832;46.038;11.398;2023-02-11T13:21:18;98363.16;;;11.92;31.26
70411;BME280;57832;46.038;11.398;2023-02-11T13:23:58;98360.59;;;12.29;31.00
70411;BME280;57832;46.038;11.398;2023-02-11T13:26:46;98363.47;;;12.46;30.52
70411;BME280;57832;46.038;11.398;2023-02-11T13:32:12;98359.50;;;12.36;29.99
70411;BME280;57832;46.038;11.398;2023-02-11T13:37:35;98344.59;;;12.12;30.65
70411;BME280;57832;46.038;11.398;2023-02-11T13:40:26;98341.97;;;11.86;30.82
70411;BME280;57832;46.038;11.398;2023-02-11T13:42:58;98332.28;;;11.80;31.51
70411;BME280;57832;46.038;11.398;2023-02-11T13:45:38;98347.31;;;11.48;31.59
70411;BME280;57832;46.038;11.398;2023-02-11T13:48:16;98342.78;;;11.30;32.71
70411;BME280;57832;46.038;11.398;2023-02-11T13:50:49;98336.03;;;11.09;33.51
70411;BME280;57832;46.038;11.398;2023-02-11T13:53:16;98339.59;;;10.89;33.28
70411;BME280;57832;46.038;11.398;2023-02-11T13:55:48;98328.28;;;10.82;33.01
70411;BME280;57832;46.038;11.398;2023-02-11T14:00:52;98324.63;;;10.37;33.03
70411;BME280;57832;46.038;11.398;2023-02-11T14:09:06;98321.09;;;9.85;34.27
70411;BME280;57832;46.038;11.398;2023-02-11T14:19:40;98325.50;;;9.37;36.21
70411;BME280;57832;46.038;11.398;2023-02-11T14:22:12;98310.22;;;9.61;37.47
70411;BME280;57832;46.038;11.398;2023-02-11T14:24:47;98307.56;;;9.28;39.03
70411;BME280;57832;46.038;11.398;2023-02-11T14:35:34;98305.97;;;8.58;38.16
70411;BME280;57832;46.038;11.398;2023-02-11T14:43:24;98297.53;;;8.56;36.67
70411;BME280;57832;46.038;11.398;2023-02-11T14:45:55;98289.72;;;8.63;36.69
70411;BME280;57832;46.038;11.398;2023-02-11T14:48:28;98284.78;;;8.46;35.56
70411;BME280;57832;46.038;11.398;2023-02-11T14:53:27;98280.72;;;8.30;36.44
70411;BME280;57832;46.038;11.398;2023-02-11T14:55:54;98283.63;;;8.14;35.99
70411;BME280;57832;46.038;11.398;2023-02-11T15:01:04;98274.38;;;7.76;38.56
70411;BME280;57832;46.038;11.398;2023-02-11T15:03:38;98278.91;;;7.39;47.32
70411;BME280;57832;46.038;11.398;2023-02-11T15:06:10;98275.69;;;7.37;56.23
70411;BME280;57832;46.038;11.398;2023-02-11T15:08:42;98277.88;;;7.33;55.31
70411;BME280;57832;46.038;11.398;2023-02-11T15:11:13;98276.66;;;6.71;100.00
70411;BME280;57832;46.038;11.398;2023-02-11T15:13:40;98273.25;;;6.71;100.00
70411;BME280;57832;46.038;11.398;2023-02-11T15:16:13;98270.09;;;6.39;100.00